Time;durP1;ratioP1;P1;durP2;ratioP2;P2;SDS_P1;SDS_P2;PMS_P1;PMS_P2;Temp;Humidity;BMP_temperature;BMP_pressure;BME280_temperature;BME280_humidity;BME280_pressure;Samples;Min_cycle;Max_cycle;Signal;HPM_P1;HPM_P2
2023/03/23 00:00:07;;;;;;;9.75;7.43;;;11.00;99.90;;;;;;5057309;28;20089;-84
2023/03/23 00:02:35;;;;;;;9.25;7.63;;;11.10;99.90;;;;;;5050799;28;20056;-86
2023/03/23 00:05:04;;;;;;;8.60;7.40;;;11.10;99.90;;;;;;5065919;28;20079;-84
2023/03/23 00:07:32;;;;;;;10.93;6.90;;;11.10;99.90;;;;;;5068085;28;20037;-84
2023/03/23 00:09:58;;;;;;;7.97;7.22;;;11.10;99.90;;;;;;5066231;28;20091;-85
2023/03/23 00:12:33;;;;;;;9.35;7.00;;;11.20;99.90;;;;;;5050269;28;20071;-84
2023/03/23 00:15:00;;;;;;;9.90;7.38;;;10.40;99.90;;;;;;5067124;28;20124;-84
2023/03/23 00:17:28;;;;;;;11.07;7.07;;;11.10;99.90;;;;;;5067030;28;20044;-84
2023/03/23 00:19:53;;;;;;;8.30;6.90;;;11.20;99.90;;;;;;5065219;28;20044;-84
2023/03/23 00:22:20;;;;;;;8.88;7.03;;;11.10;99.90;;;;;;5065834;28;20097;-84
2023/03/23 00:24:47;;;;;;;8.68;6.72;;;11.10;99.90;;;;;;5043730;28;20117;-85
2023/03/23 00:27:16;;;;;;;9.70;6.90;;;11.10;99.90;;;;;;5066058;28;20147;-84
2023/03/23 00:29:42;;;;;;;9.23;6.32;;;11.10;99.90;;;;;;5059868;28;20483;-84
2023/03/23 00:32:13;;;;;;;9.38;6.68;;;11.10;99.90;;;;;;5067068;28;20037;-84
2023/03/23 00:34:42;;;;;;;12.70;7.18;;;11.10;99.90;;;;;;5048434;28;20127;-86
2023/03/23 00:37:09;;;;;;;7.22;6.53;;;11.10;99.90;;;;;;5068640;28;20060;-84
2023/03/23 00:39:36;;;;;;;9.52;6.80;;;11.10;99.90;;;;;;5067466;28;20613;-83
2023/03/23 00:42:03;;;;;;;7.68;5.95;;;11.10;99.90;;;;;;5070416;28;20079;-83
2023/03/23 00:44:30;;;;;;;8.88;6.10;;;11.10;99.90;;;;;;5067579;28;20051;-85
2023/03/23 00:46:56;;;;;;;8.13;5.85;;;11.20;99.90;;;;;;5062741;28;20049;-84
2023/03/23 00:49:26;;;;;;;7.13;5.20;;;11.70;99.90;;;;;;5063751;28;20089;-84
2023/03/23 00:51:53;;;;;;;9.13;5.80;;;11.20;99.90;;;;;;5061852;28;20055;-85
2023/03/23 00:54:20;;;;;;;7.43;5.70;;;11.20;99.90;;;;;;5069709;28;20044;-84
2023/03/23 00:56:45;;;;;;;8.85;5.07;;;11.30;99.90;;;;;;5067185;28;20479;-83
2023/03/23 00:59:11;;;;;;;7.03;5.18;;;11.20;99.90;;;;;;5048824;28;20040;-84
2023/03/23 01:01:37;;;;;;;5.80;5.20;;;11.20;99.90;;;;;;5063660;28;20422;-83
2023/03/23 01:04:04;;;;;;;6.60;5.32;;;11.20;99.90;;;;;;5068412;28;20052;-83
2023/03/23 01:06:32;;;;;;;7.72;4.75;;;11.10;99.90;;;;;;5065946;28;20123;-84
2023/03/23 01:08:58;;;;;;;5.45;4.47;;;11.10;99.90;;;;;;5065396;28;20059;-83
2023/03/23 01:11:27;;;;;;;7.28;4.32;;;11.10;99.90;;;;;;5049342;28;20040;-83
2023/03/23 01:13:53;;;;;;;7.22;4.53;;;11.30;99.90;;;;;;5065679;28;20049;-85
2023/03/23 01:16:22;;;;;;;7.57;4.13;;;11.10;99.90;;;;;;5068102;28;20125;-84
2023/03/23 01:18:47;;;;;;;5.55;4.00;;;11.20;99.90;;;;;;5065531;28;20045;-83
2023/03/23 01:21:15;;;;;;;7.18;4.05;;;11.10;99.90;;;;;;5042685;28;20623;-85
2023/03/23 01:23:42;;;;;;;5.65;3.90;;;11.10;99.90;;;;;;5060057;28;20407;-83
2023/03/23 01:26:15;;;;;;;4.53;3.53;;;11.10;99.90;;;;;;5064635;28;20036;-84
2023/03/23 01:28:41;;;;;;;4.60;3.97;;;11.10;99.90;;;;;;5067831;28;20048;-84
2023/03/23 01:31:12;;;;;;;5.22;3.33;;;11.10;99.90;;;;;;5064786;28;20056;-84
2023/03/23 01:33:39;;;;;;;6.10;3.95;;;11.10;99.90;;;;;;5066929;28;20217;-84
2023/03/23 01:36:10;;;;;;;3.78;3.10;;;11.40;99.90;;;;;;5064976;28;20127;-84
2023/03/23 01:38:36;;;;;;;3.83;3.10;;;11.10;99.90;;;;;;5066478;28;20546;-84
2023/03/23 01:41:03;;;;;;;3.80;2.90;;;11.20;99.90;;;;;;5065953;28;20087;-84
2023/03/23 01:43:31;;;;;;;6.43;3.17;;;11.40;99.90;;;;;;5059127;28;20102;-84
2023/03/23 01:45:57;;;;;;;7.10;3.90;;;11.40;99.90;;;;;;5065876;28;20049;-84
2023/03/23 01:48:31;;;;;;;5.10;3.28;;;11.20;99.90;;;;;;5064898;28;20159;-84
2023/03/23 01:51:17;;;;;;;3.83;3.05;;;11.20;99.90;;;;;;5068049;28;20036;-83
2023/03/23 01:53:47;;;;;;;4.65;3.28;;;11.20;99.90;;;;;;5069139;28;20434;-84
2023/03/23 01:56:16;;;;;;;4.72;3.00;;;11.20;99.90;;;;;;5067053;28;20126;-83
2023/03/23 01:58:42;;;;;;;5.05;3.38;;;11.20;99.90;;;;;;5051620;28;20041;-83
2023/03/23 02:01:11;;;;;;;7.43;3.45;;;11.20;99.90;;;;;;5068651;28;20052;-83
2023/03/23 02:03:41;;;;;;;3.47;3.13;;;11.20;99.90;;;;;;5068348;28;20048;-83
2023/03/23 02:06:07;;;;;;;4.65;3.40;;;11.20;99.90;;;;;;5068255;28;20084;-82
2023/03/23 02:08:35;;;;;;;7.05;3.20;;;11.50;99.90;;;;;;5067501;28;20045;-83
2023/03/23 02:11:00;;;;;;;5.55;3.70;;;11.20;99.90;;;;;;5061246;28;20056;-84
2023/03/23 02:13:27;;;;;;;4.72;3.33;;;11.20;99.90;;;;;;5057464;28;20127;-83
2023/03/23 02:16:20;;;;;;;6.45;3.58;;;11.20;99.90;;;;;;5051959;28;20098;-83
2023/03/23 02:19:04;;;;;;;6.35;3.70;;;11.20;99.90;;;;;;5060680;28;20040;-83
2023/03/23 02:21:42;;;;;;;3.70;2.97;;;11.20;99.90;;;;;;5067517;28;20107;-83
2023/03/23 02:24:27;;;;;;;4.40;2.97;;;11.20;99.90;;;;;;5060662;28;20036;-83
2023/03/23 02:27:04;;;;;;;4.70;3.53;;;11.20;99.90;;;;;;5066517;28;20044;-84
2023/03/23 02:29:52;;;;;;;5.53;3.30;;;11.20;99.90;;;;;;5066002;28;20040;-84
2023/03/23 02:32:40;;;;;;;4.95;3.20;;;11.20;99.90;;;;;;5071440;28;20043;-83
2023/03/23 02:35:35;;;;;;;3.80;3.10;;;11.20;99.90;;;;;;5059931;28;20051;-83
2023/03/23 02:38:16;;;;;;;7.50;3.30;;;11.20;99.90;;;;;;5053582;28;20151;-83
2023/03/23 02:40:47;;;;;;;5.18;3.00;;;11.20;99.90;;;;;;5088182;28;20442;-82
2023/03/23 02:43:22;;;;;;;3.80;2.83;;;11.60;99.90;;;;;;5070125;28;20051;-83
2023/03/23 02:45:50;;;;;;;5.47;2.88;;;11.20;99.90;;;;;;5061270;28;20127;-83
2023/03/23 02:48:19;;;;;;;3.78;3.03;;;11.20;99.90;;;;;;5070337;28;20044;-83
2023/03/23 02:50:48;;;;;;;5.90;2.90;;;11.20;99.90;;;;;;5069739;28;20056;-83
2023/03/23 02:53:18;;;;;;;7.82;2.72;;;11.10;99.90;;;;;;5068974;28;20335;-83
2023/03/23 02:55:44;;;;;;;6.88;3.10;;;11.10;99.90;;;;;;5066426;28;20169;-83
2023/03/23 02:58:11;;;;;;;4.28;3.05;;;11.80;99.90;;;;;;5068371;28;20052;-83
2023/03/23 03:00:38;;;;;;;5.38;3.13;;;11.10;99.90;;;;;;5053730;28;20050;-83
2023/03/23 03:03:08;;;;;;;6.45;3.28;;;11.10;99.90;;;;;;5068703;28;20040;-83
2023/03/23 03:06:07;;;;;;;6.32;3.00;;;11.00;99.90;;;;;;5088882;28;20071;-83
2023/03/23 03:08:55;;;;;;;3.40;3.10;;;11.00;99.90;;;;;;5063106;28;20131;-83
2023/03/23 03:11:27;;;;;;;4.88;3.33;;;11.20;99.90;;;;;;5069160;28;20051;-83
2023/03/23 03:14:06;;;;;;;5.80;3.90;;;11.20;99.90;;;;;;5070160;28;20044;-83
2023/03/23 03:16:44;;;;;;;6.15;3.10;;;11.60;99.90;;;;;;5066413;28;20063;-83
2023/03/23 03:19:12;;;;;;;5.88;3.58;;;11.10;99.90;;;;;;5084257;28;20127;-82
2023/03/23 03:21:42;;;;;;;6.00;3.20;;;11.00;99.90;;;;;;5087200;28;20063;-83
2023/03/23 03:24:11;;;;;;;5.60;3.60;;;11.00;99.90;;;;;;5086792;28;20085;-83
2023/03/23 03:26:40;;;;;;;4.78;3.00;;;11.00;99.90;;;;;;5051877;28;20046;-83
2023/03/23 03:29:07;;;;;;;5.32;3.90;;;11.50;99.90;;;;;;5052898;28;20078;-83
2023/03/23 03:31:38;;;;;;;5.05;3.50;;;11.20;99.90;;;;;;5086571;28;20097;-83
2023/03/23 03:34:04;;;;;;;6.93;3.80;;;11.00;99.90;;;;;;5069067;28;20048;-83
2023/03/23 03:36:34;;;;;;;4.30;3.53;;;11.80;99.90;;;;;;5085569;28;20052;-83
2023/03/23 03:39:04;;;;;;;3.85;3.42;;;11.00;99.90;;;;;;5069830;28;20044;-83
2023/03/23 03:41:30;;;;;;;5.18;3.40;;;11.10;99.90;;;;;;5051588;28;21555;-83
2023/03/23 03:43:56;;;;;;;5.65;3.90;;;11.10;99.90;;;;;;5068916;28;20040;-83
2023/03/23 03:46:26;;;;;;;6.35;3.78;;;11.00;99.90;;;;;;5068273;28;20066;-84
2023/03/23 03:48:52;;;;;;;6.28;3.80;;;11.00;99.90;;;;;;5069667;28;20048;-83
2023/03/23 03:51:18;;;;;;;4.85;3.92;;;11.10;99.90;;;;;;5052678;28;20578;-83
2023/03/23 03:53:43;;;;;;;4.72;3.47;;;11.10;99.90;;;;;;5086941;28;20123;-82
2023/03/23 03:56:09;;;;;;;6.30;3.95;;;11.10;99.90;;;;;;5052066;28;20043;-82
2023/03/23 03:58:35;;;;;;;5.65;3.38;;;11.10;99.90;;;;;;5068849;28;20419;-84
2023/03/23 04:01:03;;;;;;;6.05;4.20;;;11.10;99.90;;;;;;5069902;28;20142;-83
2023/03/23 04:03:28;;;;;;;5.15;4.07;;;11.10;99.90;;;;;;5069298;28;20085;-83
2023/03/23 04:05:55;;;;;;;5.47;4.10;;;11.20;99.90;;;;;;5069141;28;20117;-83
2023/03/23 04:08:24;;;;;;;5.10;4.07;;;11.20;99.90;;;;;;5043564;28;20052;-83
2023/03/23 04:10:50;;;;;;;4.72;4.00;;;11.20;99.90;;;;;;5061979;28;20410;-83
2023/03/23 04:13:16;;;;;;;5.50;4.35;;;11.20;99.90;;;;;;5050566;28;20051;-84
2023/03/23 04:15:44;;;;;;;5.85;3.97;;;11.20;99.90;;;;;;5061184;28;20044;-83
2023/03/23 04:18:09;;;;;;;5.13;4.30;;;11.20;99.90;;;;;;5086423;28;20040;-84
2023/03/23 04:20:37;;;;;;;4.35;3.97;;;11.20;99.90;;;;;;5087140;28;20044;-84
2023/03/23 04:23:03;;;;;;;6.95;4.68;;;11.20;99.90;;;;;;5052254;28;20043;-84
2023/03/23 04:25:32;;;;;;;4.85;4.30;;;11.30;99.90;;;;;;5052301;28;20047;-83
2023/03/23 04:28:00;;;;;;;5.60;4.63;;;11.30;99.90;;;;;;5068270;28;20055;-84
2023/03/23 04:30:27;;;;;;;6.70;4.60;;;11.30;99.90;;;;;;5052460;28;20038;-84
2023/03/23 04:33:32;;;;;;;5.70;4.43;;;11.30;99.90;;;;;;5069509;28;20036;-83
2023/03/23 04:36:00;;;;;;;6.65;4.43;;;11.40;99.90;;;;;;5063096;28;20454;-83
2023/03/23 04:38:27;;;;;;;6.78;4.50;;;11.30;99.90;;;;;;5086151;28;20052;-83
2023/03/23 04:40:54;;;;;;;6.30;4.32;;;11.30;99.90;;;;;;5060212;28;20044;-84
2023/03/23 04:43:24;;;;;;;6.43;4.15;;;11.30;99.90;;;;;;5068513;28;20043;-84
2023/03/23 04:45:57;;;;;;;8.18;4.63;;;11.50;99.90;;;;;;5051099;28;20043;-83
2023/03/23 04:48:29;;;;;;;5.63;4.38;;;11.20;99.90;;;;;;5061959;28;20547;-84
2023/03/23 04:50:55;;;;;;;4.35;3.95;;;11.30;99.90;;;;;;5051272;28;20193;-83
2023/03/23 04:53:21;;;;;;;6.85;4.10;;;11.30;99.90;;;;;;5067884;28;20130;-84
2023/03/23 04:55:48;;;;;;;7.93;4.70;;;11.30;99.90;;;;;;5051414;28;20173;-85
2023/03/23 04:58:15;;;;;;;9.75;4.97;;;11.30;99.90;;;;;;5066284;28;20035;-84
2023/03/23 05:00:43;;;;;;;6.88;4.45;;;11.30;99.90;;;;;;5085825;28;20141;-85
2023/03/23 05:03:09;;;;;;;4.22;3.83;;;11.20;99.90;;;;;;5067590;28;20051;-85
2023/03/23 05:05:35;;;;;;;6.47;4.03;;;11.20;99.90;;;;;;5086650;28;20040;-86
2023/03/23 05:08:01;;;;;;;6.53;3.78;;;11.10;99.90;;;;;;5067295;28;20066;-86
2023/03/23 05:10:26;;;;;;;3.83;3.00;;;11.00;99.90;;;;;;5063455;28;20047;-86
2023/03/23 05:12:53;;;;;;;5.00;3.17;;;10.80;99.90;;;;;;5063713;28;20044;-85
2023/03/23 05:15:19;;;;;;;4.93;2.90;;;10.80;99.90;;;;;;5084902;28;20086;-86
2023/03/23 05:17:45;;;;;;;5.20;2.60;;;10.70;99.90;;;;;;5051310;28;20080;-86
2023/03/23 05:20:14;;;;;;;3.60;2.40;;;10.70;99.90;;;;;;5086068;28;20099;-85
2023/03/23 05:22:40;;;;;;;5.13;2.60;;;10.60;99.90;;;;;;5086078;28;20071;-85
2023/03/23 05:25:10;;;;;;;5.13;2.75;;;10.80;99.90;;;;;;5066368;28;20059;-85
2023/03/23 05:27:37;;;;;;;3.30;2.30;;;10.60;99.90;;;;;;5068048;28;20044;-85
2023/03/23 05:30:04;;;;;;;5.43;2.30;;;10.90;99.90;;;;;;5054206;28;20091;-84
2023/03/23 05:32:30;;;;;;;6.00;2.50;;;10.40;99.90;;;;;;5070417;28;20460;-85
2023/03/23 05:35:00;;;;;;;4.82;2.70;;;10.40;99.90;;;;;;5063501;28;20496;-85
2023/03/23 05:37:28;;;;;;;6.78;2.53;;;10.90;99.90;;;;;;5089461;28;20040;-85
2023/03/23 05:39:55;;;;;;;6.25;2.20;;;10.40;99.90;;;;;;5055534;28;20044;-85
2023/03/23 05:42:22;;;;;;;9.75;2.25;;;10.50;99.90;;;;;;5089874;28;20801;-85
2023/03/23 05:44:48;;;;;;;7.65;2.20;;;10.50;99.90;;;;;;5072323;28;20121;-85
2023/03/23 05:47:14;;;;;;;5.13;2.10;;;10.50;99.90;;;;;;5071421;28;20032;-86
2023/03/23 05:49:40;;;;;;;4.85;1.92;;;10.50;99.90;;;;;;5049957;28;20037;-84
2023/03/23 05:52:05;;;;;;;6.47;2.08;;;11.10;99.90;;;;;;5068151;28;20086;-85
2023/03/23 05:54:31;;;;;;;6.50;2.20;;;10.50;99.90;;;;;;5090833;28;20378;-85
2023/03/23 05:56:57;;;;;;;10.07;2.45;;;10.50;99.90;;;;;;5072251;28;20044;-85
2023/03/23 05:59:23;;;;;;;6.43;2.42;;;10.50;99.90;;;;;;5089641;28;20047;-85
2023/03/23 06:01:50;;;;;;;4.30;2.03;;;10.50;99.90;;;;;;5088590;28;20040;-85
2023/03/23 06:04:16;;;;;;;5.97;1.92;;;10.40;99.90;;;;;;5070248;28;20141;-86
2023/03/23 06:06:43;;;;;;;6.00;2.13;;;10.40;99.90;;;;;;5068669;28;20055;-86
2023/03/23 06:09:09;;;;;;;4.35;1.80;;;10.40;99.90;;;;;;5071219;28;20105;-85
2023/03/23 06:11:35;;;;;;;6.88;2.30;;;10.30;99.90;;;;;;5062885;28;20337;-86
2023/03/23 06:14:04;;;;;;;3.67;1.90;;;10.30;99.90;;;;;;5072251;28;20059;-84
2023/03/23 06:16:29;;;;;;;7.85;1.90;;;10.30;99.90;;;;;;5061557;28;20044;-84
2023/03/23 06:18:56;;;;;;;6.82;1.98;;;10.50;99.90;;;;;;5070760;28;20413;-86
2023/03/23 06:21:22;;;;;;;5.72;1.95;;;10.30;99.90;;;;;;5069415;28;20040;-85
2023/03/23 06:23:48;;;;;;;4.35;1.90;;;10.30;99.90;;;;;;5086019;28;20040;-85
2023/03/23 06:26:17;;;;;;;3.70;1.75;;;10.30;99.90;;;;;;5050950;28;20036;-84
2023/03/23 06:28:43;;;;;;;3.85;2.13;;;10.30;99.90;;;;;;5071852;28;20048;-85
2023/03/23 06:31:09;;;;;;;5.95;2.03;;;10.30;99.90;;;;;;5072494;28;20051;-84
2023/03/23 06:33:37;;;;;;;6.07;2.15;;;10.30;99.90;;;;;;5070801;28;20051;-84
2023/03/23 06:36:04;;;;;;;4.45;1.85;;;10.30;99.90;;;;;;5041590;28;20052;-85
2023/03/23 06:38:31;;;;;;;5.70;2.15;;;10.30;99.90;;;;;;5085004;28;20060;-84
2023/03/23 06:40:57;;;;;;;8.48;2.25;;;10.30;99.90;;;;;;5090178;28;20048;-85
2023/03/23 06:43:23;;;;;;;7.13;2.67;;;10.30;99.90;;;;;;5088318;28;20044;-84
2023/03/23 06:45:50;;;;;;;5.38;2.30;;;10.30;99.90;;;;;;5071849;28;20401;-85
2023/03/23 06:48:17;;;;;;;6.60;2.40;;;10.30;99.90;;;;;;5071585;28;20044;-85
2023/03/23 06:50:44;;;;;;;7.32;2.53;;;10.40;99.90;;;;;;5072108;28;20054;-84
2023/03/23 06:53:10;;;;;;;6.20;2.15;;;10.40;99.90;;;;;;5088130;28;20182;-85
2023/03/23 06:55:37;;;;;;;7.78;2.30;;;10.90;99.90;;;;;;5051980;28;20048;-85
2023/03/23 06:58:05;;;;;;;9.38;2.58;;;10.50;99.90;;;;;;5081184;28;20048;-85
2023/03/23 07:00:31;;;;;;;10.35;3.25;;;10.50;99.90;;;;;;5069470;28;20491;-84
2023/03/23 07:02:58;;;;;;;11.02;3.33;;;10.50;99.90;;;;;;5068955;28;20048;-84
2023/03/23 07:05:24;;;;;;;9.13;2.70;;;10.60;99.90;;;;;;5087366;28;20055;-83
2023/03/23 07:07:50;;;;;;;10.68;2.85;;;10.60;99.90;;;;;;5049791;28;20122;-86
2023/03/23 07:10:16;;;;;;;12.50;2.53;;;10.70;99.90;;;;;;5050569;28;20386;-85
2023/03/23 07:12:41;;;;;;;14.27;2.88;;;10.70;99.90;;;;;;5087238;28;20040;-85
2023/03/23 07:15:10;;;;;;;9.50;2.58;;;10.70;99.90;;;;;;5071058;28;20657;-84
2023/03/23 07:17:40;;;;;;;11.35;2.38;;;10.80;99.90;;;;;;5089306;28;20044;-84
2023/03/23 07:20:07;;;;;;;9.38;2.40;;;10.80;99.90;;;;;;5071723;28;20048;-84
2023/03/23 07:22:33;;;;;;;13.75;3.15;;;10.90;99.90;;;;;;5070610;28;20456;-84
2023/03/23 07:24:59;;;;;;;10.02;3.65;;;10.90;99.90;;;;;;5064499;28;20071;-84
2023/03/23 07:27:25;;;;;;;9.77;3.20;;;11.80;99.90;;;;;;5069943;28;20044;-85
2023/03/23 07:29:50;;;;;;;14.15;3.63;;;11.00;99.90;;;;;;5088296;28;20386;-84
2023/03/23 07:32:16;;;;;;;11.48;3.60;;;11.00;99.90;;;;;;5087999;28;20039;-85
2023/03/23 07:34:42;;;;;;;14.05;3.88;;;11.60;99.90;;;;;;5089524;28;20134;-84
2023/03/23 07:37:09;;;;;;;14.88;3.65;;;11.10;99.90;;;;;;5070101;28;20387;-84
2023/03/23 07:39:34;;;;;;;11.20;2.88;;;11.20;99.90;;;;;;5071449;28;20051;-84
2023/03/23 07:42:01;;;;;;;7.53;3.05;;;11.30;99.90;;;;;;5088374;28;20354;-85
2023/03/23 07:44:26;;;;;;;9.88;3.30;;;11.60;99.90;;;;;;5071561;28;20524;-84
2023/03/23 07:46:52;;;;;;;13.23;3.38;;;11.50;99.90;;;;;;5087664;28;20040;-84
2023/03/23 07:49:18;;;;;;;13.35;3.15;;;11.50;99.90;;;;;;5087216;28;20040;-84
2023/03/23 07:51:45;;;;;;;9.38;2.60;;;11.50;99.90;;;;;;5086080;28;20460;-84
2023/03/23 07:54:11;;;;;;;11.68;2.80;;;11.80;99.90;;;;;;5068737;28;20455;-84
2023/03/23 07:56:39;;;;;;;7.95;2.65;;;11.60;99.90;;;;;;5069626;28;20051;-84
2023/03/23 07:59:06;;;;;;;13.52;3.22;;;11.70;99.90;;;;;;5087966;28;20051;-84
2023/03/23 08:01:32;;;;;;;11.68;3.25;;;11.70;99.90;;;;;;5054001;28;20082;-84
2023/03/23 08:03:57;;;;;;;15.40;3.08;;;11.80;99.90;;;;;;5068520;28;20120;-83
2023/03/23 08:06:27;;;;;;;14.73;3.45;;;11.70;99.90;;;;;;5065161;28;20535;-83
2023/03/23 08:08:53;;;;;;;11.07;2.75;;;11.80;99.90;;;;;;5068618;28;20102;-83
2023/03/23 08:11:19;;;;;;;10.98;3.70;;;11.90;99.90;;;;;;5044334;28;20040;-83
2023/03/23 08:13:46;;;;;;;13.43;3.40;;;11.90;99.90;;;;;;5048052;28;20048;-83
2023/03/23 08:16:13;;;;;;;10.18;2.80;;;12.00;99.90;;;;;;5069929;28;20048;-83
2023/03/23 08:18:39;;;;;;;12.75;2.90;;;11.90;99.90;;;;;;5069611;28;20047;-83
2023/03/23 08:21:09;;;;;;;18.33;3.78;;;12.00;99.90;;;;;;5069632;28;20052;-83
2023/03/23 08:23:36;;;;;;;9.60;2.78;;;12.00;99.90;;;;;;5069385;28;20087;-83
2023/03/23 08:26:03;;;;;;;13.60;2.88;;;12.00;99.90;;;;;;5052805;28;20036;-83
2023/03/23 08:28:29;;;;;;;10.18;3.00;;;12.00;99.90;;;;;;5068772;28;20052;-83
2023/03/23 08:30:54;;;;;;;9.07;2.78;;;12.10;99.90;;;;;;5088071;28;20044;-84
2023/03/23 08:33:21;;;;;;;10.18;2.92;;;12.10;99.90;;;;;;5070181;28;20036;-83
2023/03/23 08:35:58;;;;;;;11.00;3.15;;;12.10;99.90;;;;;;5069760;28;20068;-84
2023/03/23 08:38:24;;;;;;;10.38;3.03;;;12.10;99.90;;;;;;5069277;28;20047;-84
2023/03/23 08:40:50;;;;;;;13.27;3.22;;;12.10;99.90;;;;;;5052969;28;20117;-76
2023/03/23 08:43:17;;;;;;;12.75;3.38;;;12.10;99.90;;;;;;5069875;28;20061;-83
2023/03/23 08:45:42;;;;;;;13.45;4.00;;;12.10;99.90;;;;;;5070267;28;20394;-83
2023/03/23 08:48:08;;;;;;;11.35;3.38;;;12.10;99.90;;;;;;5069685;28;20048;-83
2023/03/23 08:50:35;;;;;;;13.15;3.55;;;12.10;99.90;;;;;;5069893;28;20055;-82
2023/03/23 08:53:01;;;;;;;19.25;3.85;;;12.30;99.90;;;;;;5070347;28;20052;-82
2023/03/23 08:55:28;;;;;;;12.60;3.47;;;12.30;99.90;;;;;;5068854;28;20786;-82
2023/03/23 08:57:53;;;;;;;9.55;3.80;;;12.40;99.90;;;;;;5051330;28;20044;-82
2023/03/23 09:00:22;;;;;;;12.70;3.55;;;12.50;99.90;;;;;;5067721;28;20044;-83
2023/03/23 09:02:50;;;;;;;13.82;4.05;;;12.60;99.90;;;;;;5067622;28;20059;-83
2023/03/23 09:05:18;;;;;;;22.90;4.88;;;12.60;99.90;;;;;;5067595;28;20054;-82
2023/03/23 09:07:47;;;;;;;13.98;3.50;;;12.60;99.90;;;;;;5068090;28;20059;-82
2023/03/23 09:10:14;;;;;;;10.20;3.30;;;13.20;99.90;;;;;;5086860;28;20040;-83
2023/03/23 09:12:40;;;;;;;11.05;3.45;;;12.70;99.90;;;;;;5087847;28;20044;-83
2023/03/23 09:15:09;;;;;;;11.52;4.28;;;13.10;99.90;;;;;;5068902;28;20044;-82
2023/03/23 09:17:46;;;;;;;12.32;3.70;;;12.80;99.90;;;;;;5069841;28;20085;-83
2023/03/23 09:20:15;;;;;;;15.85;3.63;;;12.60;99.90;;;;;;5068407;28;20058;-83
2023/03/23 09:22:43;;;;;;;16.60;4.20;;;12.50;99.90;;;;;;5069563;28;20522;-82
2023/03/23 09:25:12;;;;;;;11.05;3.53;;;12.60;99.90;;;;;;5069653;28;20633;-83
2023/03/23 09:27:39;;;;;;;14.10;3.83;;;13.10;99.90;;;;;;5069057;28;20123;-83
2023/03/23 09:30:06;;;;;;;13.27;3.75;;;12.70;99.90;;;;;;5088140;28;20048;-82
2023/03/23 09:32:36;;;;;;;12.57;3.50;;;12.80;99.90;;;;;;5069490;28;20075;-84
2023/03/23 09:35:03;;;;;;;12.43;3.90;;;12.80;99.90;;;;;;5087788;28;20047;-83
2023/03/23 09:37:29;;;;;;;12.05;2.92;;;12.80;99.90;;;;;;5068030;28;20052;-83
2023/03/23 09:39:55;;;;;;;12.32;4.05;;;12.90;99.90;;;;;;5068661;28;20375;-83
2023/03/23 09:42:46;;;;;;;12.25;3.10;;;12.60;99.90;;;;;;5069702;28;20052;-83
2023/03/23 09:45:38;;;;;;;12.20;3.25;;;12.40;99.90;;;;;;5068746;28;20058;-84
2023/03/23 09:48:25;;;;;;;12.27;3.05;;;12.30;99.90;;;;;;5052867;28;20079;-83
2023/03/23 09:51:00;;;;;;;14.95;3.45;;;12.30;99.90;;;;;;5069233;28;20510;-83
2023/03/23 09:53:38;;;;;;;15.48;4.03;;;12.30;99.90;;;;;;5068428;28;20693;-83
2023/03/23 09:56:13;;;;;;;11.73;2.83;;;12.70;99.90;;;;;;5069421;28;20083;-83
2023/03/23 09:59:00;;;;;;;13.63;3.88;;;12.50;99.90;;;;;;5088021;28;20044;-83
2023/03/23 10:01:32;;;;;;;15.00;3.70;;;12.50;99.90;;;;;;5069534;28;20048;-82
2023/03/23 10:04:39;;;;;;;15.25;3.22;;;12.50;99.90;;;;;;5052266;28;20512;-84
2023/03/23 10:07:19;;;;;;;14.77;3.65;;;12.60;99.90;;;;;;5068585;28;20085;-82
2023/03/23 10:09:53;;;;;;;14.52;3.40;;;12.60;99.90;;;;;;5069148;28;20079;-81
2023/03/23 10:12:22;;;;;;;13.73;3.67;;;12.40;99.90;;;;;;5071788;28;20099;-81
2023/03/23 10:15:09;;;;;;;9.90;2.97;;;12.30;99.90;;;;;;5071682;28;20052;-82
2023/03/23 10:17:47;;;;;;;12.13;3.30;;;12.20;99.90;;;;;;5045480;28;20061;-83
2023/03/23 10:20:32;;;;;;;10.27;3.03;;;12.10;99.90;;;;;;5053308;28;20048;-83
2023/03/23 10:23:14;;;;;;;8.85;2.65;;;12.00;99.90;;;;;;5060757;28;20131;-83
2023/03/23 10:25:56;;;;;;;11.95;2.90;;;11.90;99.90;;;;;;5073094;28;20081;-83
2023/03/23 10:28:39;;;;;;;8.25;2.53;;;11.80;99.90;;;;;;5090011;28;20055;-83
2023/03/23 10:31:08;;;;;;;9.75;2.85;;;11.80;99.90;;;;;;5072616;28;20036;-83
2023/03/23 10:33:42;;;;;;;9.18;2.50;;;11.70;99.90;;;;;;5071721;28;20182;-82
2023/03/23 10:36:26;;;;;;;13.40;3.13;;;11.70;99.90;;;;;;5070832;28;20121;-82
2023/03/23 10:39:03;;;;;;;10.23;2.92;;;11.70;99.90;;;;;;5071720;28;20043;-82
2023/03/23 10:41:30;;;;;;;8.95;2.90;;;11.80;99.90;;;;;;5073222;28;20413;-82
2023/03/23 10:43:56;;;;;;;9.15;2.72;;;11.90;99.90;;;;;;5072983;28;20059;-82
2023/03/23 10:46:50;;;;;;;15.75;3.30;;;12.10;99.90;;;;;;5071942;28;20512;-82
2023/03/23 10:49:23;;;;;;;9.35;2.88;;;12.20;99.90;;;;;;5071808;28;20083;-83
2023/03/23 10:52:10;;;;;;;6.82;3.67;;;12.50;99.90;;;;;;5071832;28;20040;-82
2023/03/23 10:54:49;;;;;;;7.10;2.38;;;12.70;99.90;;;;;;5090449;28;20050;-82
2023/03/23 10:57:29;;;;;;;9.48;2.47;;;12.90;99.90;;;;;;5072457;28;20087;-82
2023/03/23 11:00:08;;;;;;;5.68;2.65;;;13.10;99.90;;;;;;5055285;28;20044;-82
2023/03/23 11:03:07;;;;;;;4.35;2.40;;;13.40;99.90;;;;;;5072299;28;20064;-83
2023/03/23 11:05:43;;;;;;;9.52;2.38;;;13.60;99.90;;;;;;5055945;28;20052;-83
2023/03/23 11:08:20;;;;;;;8.95;2.45;;;13.70;99.90;;;;;;5088061;28;20320;-82
2023/03/23 11:10:54;;;;;;;9.45;2.45;;;13.90;99.90;;;;;;5055319;28;20105;-82
2023/03/23 11:13:23;;;;;;;5.72;2.00;;;14.00;99.90;;;;;;5088391;28;20083;-83
2023/03/23 11:15:49;;;;;;;7.35;2.78;;;14.20;99.90;;;;;;5088928;28;20418;-82
2023/03/23 11:18:37;;;;;;;8.35;2.30;;;14.20;99.90;;;;;;5069398;28;20721;-83
2023/03/23 11:21:05;;;;;;;10.07;2.65;;;14.30;99.90;;;;;;5084869;28;20046;-84
2023/03/23 11:23:36;;;;;;;9.15;2.80;;;14.40;99.90;;;;;;5064421;28;20052;-83
2023/03/23 11:26:24;;;;;;;8.65;2.53;;;14.30;99.90;;;;;;5089594;28;20087;-82
2023/03/23 11:28:57;;;;;;;11.40;2.72;;;14.10;99.90;;;;;;5069725;28;20058;-82
2023/03/23 11:31:30;;;;;;;6.40;2.20;;;14.00;99.90;;;;;;5071517;28;20036;-82
2023/03/23 11:34:16;;;;;;;5.05;2.35;;;13.80;99.90;;;;;;5055034;28;20044;-84
2023/03/23 11:36:54;;;;;;;8.40;2.17;;;14.20;99.90;;;;;;5088416;28;20060;-82
2023/03/23 11:39:30;;;;;;;8.75;2.38;;;13.80;99.90;;;;;;5087840;28;20047;-83
2023/03/23 11:41:59;;;;;;;11.05;2.75;;;13.90;99.90;;;;;;5088295;28;20051;-83
2023/03/23 11:44:41;;;;;;;9.70;2.40;;;14.20;99.90;;;;;;5054252;28;20528;-83
2023/03/23 11:47:21;;;;;;;6.65;2.30;;;14.50;99.90;;;;;;5071917;28;20055;-82
2023/03/23 11:50:10;;;;;;;8.15;2.55;;;14.30;99.90;;;;;;5070313;28;20067;-82
2023/03/23 11:52:57;;;;;;;6.03;2.33;;;14.20;99.90;;;;;;5052526;28;20502;-83
2023/03/23 11:55:55;;;;;;;8.55;2.20;;;14.00;99.90;;;;;;5070797;28;20048;-82
2023/03/23 11:58:21;;;;;;;7.78;2.38;;;13.90;99.90;;;;;;5035068;28;20060;-83
2023/03/23 12:00:57;;;;;;;4.95;1.70;;;13.90;99.90;;;;;;5070445;28;20048;-83
2023/03/23 12:03:46;;;;;;;4.97;1.98;;;14.20;99.90;;;;;;5069779;28;20052;-82
2023/03/23 12:06:43;;;;;;;7.32;2.00;;;13.70;99.90;;;;;;5089124;28;20409;-83
2023/03/23 12:09:14;;;;;;;4.80;1.92;;;13.60;99.90;;;;;;5067816;28;20036;-83
2023/03/23 12:11:40;;;;;;;4.50;2.25;;;13.50;99.90;;;;;;5068552;28;20154;-82
2023/03/23 12:14:41;;;;;;;7.10;2.40;;;13.40;99.90;;;;;;5070580;28;20113;-82
2023/03/23 12:17:29;;;;;;;8.48;2.47;;;13.50;99.90;;;;;;5071019;28;20656;-82
2023/03/23 12:20:25;;;;;;;9.27;2.10;;;13.50;99.90;;;;;;5088697;28;20044;-82
2023/03/23 12:23:27;;;;;;;7.00;2.35;;;13.50;99.90;;;;;;5052861;28;20390;-82
2023/03/23 12:26:11;;;;;;;9.07;2.20;;;13.40;99.90;;;;;;5070310;28;20044;-82
2023/03/23 12:29:13;;;;;;;8.40;2.85;;;13.40;99.90;;;;;;5070552;28;20083;-83
2023/03/23 12:31:55;;;;;;;4.97;2.00;;;13.40;99.90;;;;;;5087949;28;20044;-83
2023/03/23 12:34:45;;;;;;;9.60;2.50;;;13.30;99.90;;;;;;5069324;28;20044;-82
2023/03/23 12:37:28;;;;;;;8.98;2.42;;;13.20;99.90;;;;;;5053148;28;20052;-82
2023/03/23 12:40:22;;;;;;;10.35;2.92;;;13.20;99.90;;;;;;5070330;28;20086;-82
2023/03/23 12:43:25;;;;;;;11.43;2.72;;;13.20;99.90;;;;;;5088122;28;20104;-82
2023/03/23 12:46:10;;;;;;;8.25;2.53;;;13.20;99.90;;;;;;5040856;28;20064;-82
2023/03/23 12:49:00;;;;;;;7.70;2.25;;;13.20;99.90;;;;;;5070838;28;20506;-82
2023/03/23 12:51:44;;;;;;;10.32;2.42;;;13.20;99.90;;;;;;5069481;28;20122;-82
2023/03/23 12:54:31;;;;;;;9.05;3.05;;;13.20;99.90;;;;;;5069823;28;20347;-82
2023/03/23 12:57:23;;;;;;;7.53;2.63;;;13.20;99.90;;;;;;5088983;28;20059;-82
2023/03/23 12:59:56;;;;;;;9.75;2.70;;;13.30;99.90;;;;;;5085785;28;20456;-82
2023/03/23 13:02:31;;;;;;;7.47;2.15;;;13.30;99.90;;;;;;5087631;28;20043;-82
2023/03/23 13:05:24;;;;;;;9.38;2.58;;;13.50;99.90;;;;;;5070606;28;20039;-82